Time;durP1;ratioP1;P1;durP2;ratioP2;P2;SDS_P1;SDS_P2;PMS_P1;PMS_P2;Temp;Humidity;BMP_temperature;BMP_pressure;BME280_temperature;BME280_humidity;BME280_pressure;Samples;Min_cycle;Max_cycle;Signal;HPM_P1;HPM_P2
2023/06/24 00:02:23;;;;;;;6.93;2.42;;;;;;;18.04;100.00;100724.03;4935961;28;20038;-82
2023/06/24 00:04:51;;;;;;;7.10;2.28;;;;;;;18.07;100.00;100723.66;4945043;28;20569;-84
2023/06/24 00:07:17;;;;;;;10.40;2.60;;;;;;;18.07;100.00;100720.97;4957382;28;20040;-84
2023/06/24 00:09:43;;;;;;;7.43;2.30;;;;;;;18.12;100.00;100720.44;4937361;28;20703;-84
2023/06/24 00:12:09;;;;;;;11.65;3.45;;;;;;;18.12;100.00;100715.94;4943452;28;20034;-82
2023/06/24 00:14:36;;;;;;;5.45;2.60;;;;;;;18.16;100.00;100714.53;4950762;28;20527;-83
2023/06/24 00:17:02;;;;;;;6.05;2.38;;;;;;;18.18;100.00;100704.47;4942156;28;20034;-83
2023/06/24 00:19:28;;;;;;;8.07;2.67;;;;;;;18.22;100.00;100700.41;4943012;28;20070;-83
2023/06/24 00:21:54;;;;;;;11.48;2.72;;;;;;;18.26;100.00;100705.38;4942535;28;20041;-82
2023/06/24 00:24:25;;;;;;;14.52;2.65;;;;;;;18.29;100.00;100715.69;4941028;28;20479;-82
2023/06/24 00:26:54;;;;;;;6.38;2.53;;;;;;;18.29;100.00;100708.50;4952781;28;20211;-82
2023/06/24 00:29:20;;;;;;;10.15;2.80;;;;;;;18.29;100.00;100713.00;4949019;28;20069;-81
2023/06/24 00:31:46;;;;;;;12.00;2.58;;;;;;;18.31;100.00;100719.00;4952276;28;20066;-81
2023/06/24 00:34:12;;;;;;;4.97;2.80;;;;;;;18.30;100.00;100712.81;4967596;28;20404;-83
2023/06/24 00:36:38;;;;;;;5.53;2.53;;;;;;;18.27;100.00;100710.53;4975652;28;20119;-82
2023/06/24 00:39:09;;;;;;;8.10;2.53;;;;;;;18.29;100.00;100713.00;4923098;28;20034;-82
2023/06/24 00:41:36;;;;;;;9.80;2.97;;;;;;;18.24;100.00;100708.22;4972983;28;20121;-83
2023/06/24 00:44:02;;;;;;;8.70;3.22;;;;;;;18.17;100.00;100707.34;4952623;28;20765;-82
2023/06/24 00:46:31;;;;;;;9.48;3.03;;;;;;;18.14;100.00;100703.19;4972784;28;20034;-82
2023/06/24 00:48:58;;;;;;;5.95;2.65;;;;;;;18.12;100.00;100699.03;4943197;28;20038;-82
2023/06/24 00:51:30;;;;;;;11.57;3.55;;;;;;;18.05;100.00;100693.56;4946379;28;20508;-82
2023/06/24 00:53:57;;;;;;;9.10;3.50;;;;;;;18.01;100.00;100690.47;4954136;28;20139;-82
2023/06/24 00:56:29;;;;;;;10.55;3.30;;;;;;;18.00;100.00;100694.13;4957418;28;20037;-83
2023/06/24 00:58:58;;;;;;;6.25;3.20;;;;;;;17.97;100.00;100690.00;4956148;28;20744;-84
2023/06/24 01:01:24;;;;;;;10.80;3.28;;;;;;;17.92;100.00;100694.25;4978973;28;20448;-83
2023/06/24 01:03:50;;;;;;;8.18;3.28;;;;;;;17.91;100.00;100701.47;4965423;28;20520;-83
2023/06/24 01:06:17;;;;;;;9.50;3.40;;;;;;;17.90;100.00;100696.28;4958792;28;20081;-82
2023/06/24 01:08:43;;;;;;;9.70;3.45;;;;;;;17.89;100.00;100692.78;4942093;28;20444;-83
2023/06/24 01:11:10;;;;;;;16.65;4.03;;;;;;;17.90;100.00;100690.94;4952730;28;20034;-82
2023/06/24 01:13:36;;;;;;;12.43;4.45;;;;;;;17.90;100.00;100702.44;4953166;28;20489;-84
2023/06/24 01:16:25;;;;;;;8.98;3.53;;;;;;;17.94;100.00;100700.25;4974312;28;20111;-82
2023/06/24 01:18:58;;;;;;;9.10;3.80;;;;;;;17.95;100.00;100697.38;4973270;28;20484;-84
2023/06/24 01:22:11;;;;;;;12.25;4.10;;;;;;;17.98;100.00;100698.88;4937381;28;20026;-82
2023/06/24 01:25:17;;;;;;;13.25;4.00;;;;;;;17.96;100.00;100704.38;4938578;28;20046;-82
2023/06/24 01:27:54;;;;;;;14.70;4.30;;;;;;;18.04;100.00;100702.63;4908169;29;20032;-84
2023/06/24 01:30:57;;;;;;;11.25;3.80;;;;;;;18.04;100.00;100699.97;4959135;28;20062;-83
2023/06/24 01:33:30;;;;;;;13.07;3.67;;;;;;;18.07;100.00;100702.25;4973322;28;20955;-82
2023/06/24 01:35:58;;;;;;;12.95;3.10;;;;;;;18.10;100.00;100697.38;4969012;28;20113;-83
2023/06/24 01:38:35;;;;;;;14.43;3.90;;;;;;;18.15;100.00;100693.31;4970029;28;20105;-81
2023/06/24 01:41:03;;;;;;;8.50;3.33;;;;;;;18.17;100.00;100692.09;4960672;28;20408;-84
2023/06/24 01:43:31;;;;;;;11.52;3.30;;;;;;;18.18;100.00;100699.13;4957408;28;20045;-80
2023/06/24 01:45:57;;;;;;;11.85;3.80;;;;;;;18.20;100.00;100693.59;4939210;28;20556;-79
2023/06/24 01:48:32;;;;;;;12.35;2.90;;;;;;;18.20;100.00;100689.03;4956598;28;20136;-82
2023/06/24 01:51:17;;;;;;;12.32;3.38;;;;;;;18.22;100.00;100686.19;4957280;28;20505;-82
2023/06/24 01:53:49;;;;;;;9.93;3.28;;;;;;;18.22;100.00;100679.00;4935018;28;20050;-82
2023/06/24 01:56:17;;;;;;;12.20;3.00;;;;;;;18.20;100.00;100681.03;4936739;28;20035;-80
2023/06/24 01:58:47;;;;;;;9.38;3.10;;;;;;;18.21;100.00;100677.34;4970540;28;20039;-84
2023/06/24 02:01:13;;;;;;;13.75;3.30;;;;;;;18.22;100.00;100676.31;4940201;28;20046;-84
2023/06/24 02:03:42;;;;;;;6.05;2.72;;;;;;;18.25;100.00;100677.78;4956224;28;20121;-82
2023/06/24 02:06:11;;;;;;;15.32;3.60;;;;;;;18.24;100.00;100678.81;4951747;28;20035;-82
2023/06/24 02:08:39;;;;;;;10.38;3.85;;;;;;;18.25;100.00;100674.28;4934728;28;20082;-83
2023/06/24 02:11:08;;;;;;;10.52;3.38;;;;;;;18.25;100.00;100669.75;4932602;28;20065;-83
2023/06/24 02:13:36;;;;;;;10.02;3.95;;;;;;;18.25;100.00;100664.41;4936913;28;21445;-80
2023/06/24 02:16:06;;;;;;;9.20;4.07;;;;;;;18.26;100.00;100657.22;4932145;28;20035;-82
2023/06/24 02:18:34;;;;;;;11.52;3.60;;;;;;;18.23;100.00;100661.91;4933456;28;20121;-80
2023/06/24 02:21:01;;;;;;;8.65;3.88;;;;;;;18.25;100.00;100672.41;4949452;28;20062;-79
2023/06/24 02:23:29;;;;;;;9.27;4.32;;;;;;;18.23;100.00;100677.97;4939613;28;20046;-82
2023/06/24 02:25:56;;;;;;;7.97;3.85;;;;;;;18.21;100.00;100680.03;4945420;28;20464;-82
2023/06/24 02:28:23;;;;;;;10.82;3.92;;;;;;;18.25;100.00;100672.41;4944231;28;20648;-84
2023/06/24 02:30:50;;;;;;;12.32;4.20;;;;;;;18.26;100.00;100676.78;4956210;28;20572;-81
2023/06/24 02:33:15;;;;;;;11.15;4.93;;;;;;;18.28;100.00;100669.41;4937887;28;20513;-82
2023/06/24 02:35:45;;;;;;;11.98;4.97;;;;;;;18.29;100.00;100665.69;4960086;28;20623;-80
2023/06/24 02:38:12;;;;;;;9.80;4.22;;;;;;;18.32;100.00;100673.34;4934967;28;20043;-82
2023/06/24 02:40:38;;;;;;;12.48;4.57;;;;;;;18.34;100.00;100676.66;4982136;28;20031;-83
2023/06/24 02:43:04;;;;;;;13.05;5.07;;;;;;;18.33;100.00;100669.63;4947064;28;20034;-82
2023/06/24 02:45:31;;;;;;;8.30;4.10;;;;;;;18.35;100.00;100672.97;4957195;28;20027;-86
2023/06/24 02:47:58;;;;;;;10.73;4.53;;;;;;;18.35;100.00;100675.63;4936111;28;20069;-83
2023/06/24 02:50:25;;;;;;;10.30;5.15;;;;;;;18.42;100.00;100686.41;4924082;28;20031;-85
2023/06/24 02:52:52;;;;;;;11.38;4.20;;;;;;;18.43;100.00;100681.88;4964374;28;20060;-82
2023/06/24 02:55:19;;;;;;;7.28;3.90;;;;;;;18.42;100.00;100682.91;4966187;28;20046;-83
2023/06/24 02:57:50;;;;;;;8.40;3.97;;;;;;;18.45;100.00;100688.69;4954318;28;20058;-81
2023/06/24 03:00:33;;;;;;;7.80;3.90;;;;;;;18.43;100.00;100680.03;4956186;28;20038;-81
2023/06/24 03:03:20;;;;;;;9.60;4.20;;;;;;;18.44;100.00;100676.31;4957597;28;20485;-82
2023/06/24 03:05:53;;;;;;;12.10;3.80;;;;;;;18.42;100.00;100673.03;4940303;28;20038;-81
2023/06/24 03:08:20;;;;;;;7.93;3.70;;;;;;;18.41;100.00;100671.34;4962116;28;20081;-84
2023/06/24 03:10:49;;;;;;;10.73;3.58;;;;;;;18.39;100.00;100667.22;4936581;28;20118;-82
2023/06/24 03:13:20;;;;;;;6.90;3.22;;;;;;;18.40;100.00;100668.88;4953965;28;20157;-81
2023/06/24 03:15:53;;;;;;;7.40;3.58;;;;;;;18.37;100.00;100663.91;4964187;28;20041;-82
2023/06/24 03:18:20;;;;;;;7.80;3.53;;;;;;;18.39;100.00;100670.72;4951537;28;20507;-83
2023/06/24 03:20:47;;;;;;;9.65;3.53;;;;;;;18.40;100.00;100671.53;4965629;28;20505;-81
2023/06/24 03:23:17;;;;;;;5.38;2.80;;;;;;;18.41;100.00;100666.00;4953954;28;20073;-84
2023/06/24 03:25:44;;;;;;;7.88;3.08;;;;;;;18.44;100.00;100675.50;4947245;28;20049;-83
2023/06/24 03:28:10;;;;;;;8.93;3.17;;;;;;;18.44;100.00;100670.97;4952450;28;20039;-79
2023/06/24 03:30:41;;;;;;;5.60;2.65;;;;;;;18.46;100.00;100674.28;4960584;28;20493;-80
2023/06/24 03:33:07;;;;;;;8.98;2.83;;;;;;;18.43;100.00;100668.47;4957488;28;20532;-82
2023/06/24 03:35:33;;;;;;;5.38;2.75;;;;;;;18.42;100.00;100670.34;4953127;28;20038;-82
2023/06/24 03:38:03;;;;;;;8.80;2.85;;;;;;;18.41;100.00;100673.22;4942150;28;20057;-84
2023/06/24 03:40:31;;;;;;;6.47;2.60;;;;;;;18.42;100.00;100664.16;4940118;28;20034;-82
2023/06/24 03:42:57;;;;;;;6.97;3.15;;;;;;;18.41;100.00;100666.00;4938455;28;20039;-81
2023/06/24 03:45:24;;;;;;;5.80;2.72;;;;;;;18.40;100.00;100666.19;4932511;28;20117;-82
2023/06/24 03:47:50;;;;;;;5.72;2.50;;;;;;;18.39;100.00;100665.38;4935745;29;20401;-82
2023/06/24 03:50:16;;;;;;;9.32;2.95;;;;;;;18.38;100.00;100671.72;4938666;28;20070;-81
2023/06/24 03:52:44;;;;;;;6.75;2.97;;;;;;;18.37;100.00;100674.59;4955628;28;20066;-82
2023/06/24 03:55:10;;;;;;;8.25;2.65;;;;;;;18.33;100.00;100669.63;4932548;28;20031;-82
2023/06/24 03:57:37;;;;;;;6.22;2.30;;;;;;;18.30;100.00;100674.56;4970271;28;20038;-82
2023/06/24 04:00:15;;;;;;;5.45;2.42;;;;;;;18.28;100.00;100671.22;4932389;28;20047;-81
2023/06/24 04:02:43;;;;;;;6.53;1.98;;;;;;;18.23;100.00;100672.63;4948316;28;20045;-82
2023/06/24 04:05:09;;;;;;;5.88;2.20;;;;;;;18.25;100.00;100683.13;4932753;28;20069;-83
2023/06/24 04:07:35;;;;;;;5.68;2.28;;;;;;;18.20;100.00;100685.56;4957457;28;20046;-82
2023/06/24 04:10:08;;;;;;;5.13;2.20;;;;;;;18.23;100.00;100682.50;4953148;28;20031;-82
2023/06/24 04:12:35;;;;;;;5.82;2.08;;;;;;;18.22;100.00;100699.56;4941863;28;20039;-80
2023/06/24 04:15:03;;;;;;;6.43;1.90;;;;;;;18.20;100.00;100691.72;4921872;28;20034;-82
2023/06/24 04:17:30;;;;;;;6.40;1.98;;;;;;;18.17;100.00;100692.09;4938696;28;20045;-83
2023/06/24 04:19:58;;;;;;;4.65;1.88;;;;;;;18.18;100.00;100699.13;4953146;28;20065;-85
2023/06/24 04:22:25;;;;;;;5.40;1.70;;;;;;;18.19;100.00;100703.44;4939371;28;20125;-83
2023/06/24 04:24:56;;;;;;;7.80;2.13;;;;;;;18.20;100.00;100701.63;4950487;28;20049;-82
2023/06/24 04:27:23;;;;;;;8.43;2.35;;;;;;;18.22;100.00;100711.09;4951389;28;20122;-82
2023/06/24 04:29:49;;;;;;;9.07;2.60;;;;;;;18.23;100.00;100704.72;4939824;28;20518;-82
2023/06/24 04:32:15;;;;;;;6.85;1.77;;;;;;;18.26;100.00;100716.06;4942118;28;20070;-83
2023/06/24 04:34:41;;;;;;;5.03;2.05;;;;;;;18.26;100.00;100708.88;4937916;28;20035;-82
2023/06/24 04:37:06;;;;;;;6.70;2.20;;;;;;;18.29;100.00;100707.66;4950847;28;20030;-85
2023/06/24 04:39:32;;;;;;;8.00;2.00;;;;;;;18.30;100.00;100718.19;4971456;28;20437;-83
2023/06/24 04:41:58;;;;;;;6.72;2.38;;;;;;;18.33;100.00;100708.97;4955499;28;20058;-83
2023/06/24 04:44:24;;;;;;;8.68;2.30;;;;;;;18.34;100.00;100715.97;4954287;28;20035;-82
2023/06/24 04:46:51;;;;;;;7.68;2.10;;;;;;;18.34;100.00;100721.31;4936472;28;20039;-81
2023/06/24 04:49:18;;;;;;;3.80;2.08;;;;;;;18.34;100.00;100721.31;4935089;28;20046;-80
2023/06/24 04:51:44;;;;;;;4.65;1.95;;;;;;;18.37;100.00;100723.59;4913430;28;20027;-83
2023/06/24 04:54:12;;;;;;;7.20;2.45;;;;;;;18.37;100.00;100726.28;4967416;28;20077;-81
2023/06/24 04:56:39;;;;;;;5.53;2.40;;;;;;;18.38;100.00;100719.91;4958138;28;20092;-80
2023/06/24 04:59:05;;;;;;;13.93;2.80;;;;;;;18.39;100.00;100721.59;4943246;28;20396;-81
2023/06/24 05:01:31;;;;;;;6.00;1.92;;;;;;;18.39;100.00;100716.22;4973165;28;20041;-80
2023/06/24 05:03:57;;;;;;;6.60;2.00;;;;;;;18.39;100.00;100716.22;4970947;28;20061;-83
2023/06/24 05:06:23;;;;;;;6.35;2.50;;;;;;;18.40;100.00;100714.34;4958013;28;20038;-83
2023/06/24 05:08:48;;;;;;;7.15;2.40;;;;;;;18.39;100.00;100710.03;4956526;28;20053;-82
2023/06/24 05:11:14;;;;;;;10.75;2.40;;;;;;;18.41;100.00;100705.34;4938322;28;20049;-82
2023/06/24 05:13:40;;;;;;;7.85;2.05;;;;;;;18.43;100.00;100700.59;4942252;28;20710;-83
2023/06/24 05:16:06;;;;;;;11.52;2.38;;;;;;;18.42;100.00;100706.97;4955280;28;20134;-82
2023/06/24 05:18:32;;;;;;;9.75;2.40;;;;;;;18.47;100.00;100716.09;4955152;28;20486;-84
2023/06/24 05:20:57;;;;;;;7.20;2.35;;;;;;;18.47;100.00;100710.72;4998542;28;20041;-84
2023/06/24 05:23:23;;;;;;;11.07;2.80;;;;;;;18.47;100.00;100715.28;4949467;28;20034;-81
2023/06/24 05:25:49;;;;;;;10.02;2.92;;;;;;;18.49;100.00;100707.06;4953310;28;20054;-81
2023/06/24 05:28:15;;;;;;;9.48;2.72;;;;;;;18.45;100.00;100717.31;4987376;28;20547;-83
2023/06/24 05:30:41;;;;;;;9.27;2.83;;;;;;;18.46;100.00;100717.13;4940204;28;20493;-81
2023/06/24 05:33:07;;;;;;;10.32;3.10;;;;;;;18.48;100.00;100716.91;4972381;28;20045;-81
2023/06/24 05:35:33;;;;;;;8.00;2.47;;;;;;;18.51;100.00;100713.03;4975757;28;20029;-82
2023/06/24 05:37:59;;;;;;;15.02;3.55;;;;;;;18.51;100.00;100711.19;4949832;28;20039;-83
2023/06/24 05:40:25;;;;;;;9.38;2.70;;;;;;;18.50;100.00;100712.22;4957133;28;20645;-82
2023/06/24 05:42:51;;;;;;;11.18;2.75;;;;;;;18.50;100.00;100714.06;4956185;28;20050;-80
2023/06/24 05:45:17;;;;;;;12.25;2.67;;;;;;;18.47;100.00;100709.91;4967200;28;20531;-82
2023/06/24 05:47:43;;;;;;;11.43;3.08;;;;;;;18.51;100.00;100713.88;4971842;28;20053;-81
2023/06/24 05:50:09;;;;;;;10.65;2.85;;;;;;;18.52;100.00;100723.53;4940217;28;20489;-82
2023/06/24 05:52:35;;;;;;;8.00;2.55;;;;;;;18.51;100.00;100726.41;4971623;28;20065;-81
2023/06/24 05:55:01;;;;;;;9.43;2.97;;;;;;;18.52;100.00;100725.41;4971348;28;20115;-81
2023/06/24 05:57:28;;;;;;;8.63;2.30;;;;;;;18.54;100.00;100724.19;4968885;28;20035;-83
2023/06/24 05:59:54;;;;;;;9.73;2.72;;;;;;;18.55;100.00;100725.03;4944035;28;20065;-81
2023/06/24 06:02:19;;;;;;;10.32;2.90;;;;;;;18.59;100.00;100720.94;4956695;28;20100;-81
2023/06/24 06:04:47;;;;;;;7.82;2.00;;;;;;;18.63;100.00;100724.06;4943416;28;20177;-82
2023/06/24 06:07:13;;;;;;;8.02;2.50;;;;;;;18.64;100.00;100721.19;4963062;28;20058;-82
2023/06/24 06:09:39;;;;;;;11.77;2.83;;;;;;;18.68;100.00;100719.78;4942589;28;20034;-81
2023/06/24 06:12:06;;;;;;;9.45;2.35;;;;;;;18.75;100.00;100725.22;4970134;28;20145;-81
2023/06/24 06:14:31;;;;;;;9.05;2.42;;;;;;;18.79;100.00;100723.00;4941758;28;20030;-81
2023/06/24 06:16:57;;;;;;;8.38;2.35;;;;;;;18.87;100.00;100736.25;4941877;28;20089;-81
2023/06/24 06:19:23;;;;;;;9.48;2.70;;;;;;;18.88;100.00;100727.19;4992330;28;20030;-81
2023/06/24 06:21:51;;;;;;;5.13;2.30;;;;;;;18.90;100.00;100724.31;4944835;28;20034;-82
2023/06/24 06:24:17;;;;;;;12.88;3.03;;;;;;;18.91;100.00;100732.16;4960446;28;20056;-82
2023/06/24 06:26:44;;;;;;;10.25;2.35;;;;;;;18.94;100.00;100730.94;4980502;28;20499;-82
2023/06/24 06:29:11;;;;;;;10.00;2.70;;;;;;;18.98;100.00;100729.53;4957848;28;20058;-82
2023/06/24 06:31:37;;;;;;;15.00;2.45;;;;;;;19.02;100.00;100735.31;4962259;28;20034;-80
2023/06/24 06:34:03;;;;;;;8.52;2.45;;;;;;;19.07;100.00;100735.56;4947123;28;20046;-80
2023/06/24 06:36:29;;;;;;;10.98;3.28;;;;;;;19.08;100.00;100729.19;4945811;28;20069;-83
2023/06/24 06:38:55;;;;;;;10.05;2.97;;;;;;;19.12;100.00;100737.69;4976325;28;20042;-83
2023/06/24 06:41:24;;;;;;;10.63;2.63;;;;;;;19.15;100.00;100738.16;4962960;28;20034;-82
2023/06/24 06:43:53;;;;;;;7.15;2.60;;;;;;;19.30;100.00;100737.22;4947885;28;20065;-85
2023/06/24 06:46:20;;;;;;;9.60;2.92;;;;;;;19.30;100.00;100735.34;4976928;28;20511;-87
2023/06/24 06:48:46;;;;;;;9.07;3.00;;;;;;;19.29;100.00;100732.88;4956801;28;20049;-81
2023/06/24 06:51:12;;;;;;;13.00;2.80;;;;;;;19.33;100.00;100734.97;4960762;28;20034;-82
2023/06/24 06:53:38;;;;;;;7.55;2.72;;;;;;;19.34;100.00;100738.47;4994539;28;20596;-86
2023/06/24 06:56:04;;;;;;;8.73;2.67;;;;;;;19.33;100.00;100743.00;4938559;28;20092;-87
2023/06/24 06:58:31;;;;;;;11.48;3.05;;;;;;;19.39;100.00;100751.28;4967732;28;20501;-81
2023/06/24 07:01:01;;;;;;;8.30;2.58;;;;;;;19.36;100.00;100746.31;4960180;28;20065;-81
2023/06/24 07:03:28;;;;;;;7.50;2.63;;;;;;;19.36;100.00;100743.66;4927839;28;20038;-83
2023/06/24 07:05:53;;;;;;;8.15;2.60;;;;;;;19.37;100.00;100748.81;4911064;28;20050;-82
2023/06/24 07:08:19;;;;;;;12.00;2.67;;;;;;;19.44;100.00;100756.91;4937427;28;20039;-84
2023/06/24 07:10:45;;;;;;;15.82;2.60;;;;;;;19.48;100.00;100750.13;4943155;28;20555;-82
2023/06/24 07:13:11;;;;;;;11.43;2.75;;;;;;;19.52;100.00;100753.25;4940297;28;20066;-82
2023/06/24 07:15:37;;;;;;;12.20;3.53;;;;;;;19.61;100.00;100761.94;4939139;29;20051;-83
2023/06/24 07:18:03;;;;;;;10.93;3.10;;;;;;;19.59;100.00;100765.66;4958208;28;20066;-81
2023/06/24 07:20:28;;;;;;;9.00;2.97;;;;;;;19.63;100.00;100766.09;4928565;28;20105;-82
2023/06/24 07:22:54;;;;;;;10.70;2.90;;;;;;;19.62;100.00;100768.97;4938143;28;20494;-81
2023/06/24 07:25:20;;;;;;;12.77;2.63;;;;;;;19.65;100.00;100777.44;4964130;28;20449;-81
2023/06/24 07:27:46;;;;;;;10.40;2.72;;;;;;;19.70;100.00;100780.38;4942205;28;20041;-83
2023/06/24 07:30:12;;;;;;;8.48;2.75;;;;;;;19.78;100.00;100776.69;4952083;28;20038;-80
2023/06/24 07:32:38;;;;;;;9.75;3.17;;;;;;;19.78;100.00;100782.06;4930911;28;20074;-81
2023/06/24 07:35:04;;;;;;;8.43;2.97;;;;;;;19.86;100.00;100788.31;4945752;28;20141;-82
2023/06/24 07:37:30;;;;;;;10.45;3.47;;;;;;;19.89;100.00;100787.91;4939242;28;20031;-81
2023/06/24 07:39:56;;;;;;;7.55;3.30;;;;;;;19.86;100.00;100789.13;4956702;28;20061;-82
2023/06/24 07:42:21;;;;;;;7.10;2.78;;;;;;;19.75;100.00;100790.50;4924920;28;20043;-80
2023/06/24 07:44:48;;;;;;;9.68;3.10;;;;;;;19.69;100.00;100789.44;4956933;28;20038;-82
2023/06/24 07:47:16;;;;;;;9.00;3.22;;;;;;;19.64;100.00;100805.28;5000420;28;20033;-81
2023/06/24 07:49:42;;;;;;;13.77;3.45;;;;;;;19.61;100.00;100796.81;4968358;28;20059;-82
2023/06/24 07:52:08;;;;;;;10.00;2.97;;;;;;;19.60;100.00;100804.03;4952433;28;20478;-81
2023/06/24 07:54:34;;;;;;;13.43;3.53;;;;;;;19.58;100.00;100809.59;4935952;28;20105;-81
2023/06/24 07:57:00;;;;;;;6.38;3.03;;;;;;;19.58;100.00;100806.06;4922596;28;20031;-81
2023/06/24 07:59:26;;;;;;;13.30;3.72;;;;;;;19.58;100.00;100804.22;4954939;28;20038;-81
2023/06/24 08:01:52;;;;;;;14.05;3.33;;;;;;;19.63;100.00;100803.66;4966536;28;20035;-83
2023/06/24 08:04:17;;;;;;;11.50;3.70;;;;;;;19.66;100.00;100805.94;4929892;28;20034;-81
2023/06/24 08:06:43;;;;;;;10.05;3.83;;;;;;;19.73;100.00;100807.81;4958039;28;20109;-80
2023/06/24 08:09:10;;;;;;;12.75;3.75;;;;;;;19.78;100.00;100808.88;4924150;28;20041;-82
2023/06/24 08:11:36;;;;;;;15.00;4.60;;;;;;;19.87;100.00;100804.19;4952679;28;20039;-81
2023/06/24 08:14:02;;;;;;;13.52;3.53;;;;;;;19.94;100.00;100807.75;4942836;28;20041;-81
2023/06/24 08:16:27;;;;;;;10.63;3.72;;;;;;;20.07;100.00;100803.50;4941101;28;20536;-81
2023/06/24 08:18:53;;;;;;;12.32;3.70;;;;;;;20.12;100.00;100798.38;4939634;28;20125;-81
2023/06/24 08:21:19;;;;;;;11.02;3.50;;;;;;;20.20;100.00;100800.88;4940000;28;20425;-81
2023/06/24 08:23:46;;;;;;;14.45;3.33;;;;;;;20.26;100.00;100809.19;4941174;28;20062;-84
2023/06/24 08:26:12;;;;;;;10.27;2.92;;;;;;;20.27;100.00;100803.59;4929908;28;20038;-83
2023/06/24 08:28:38;;;;;;;9.15;3.08;;;;;;;20.21;100.00;100804.38;4952314;28;20508;-84
2023/06/24 08:31:04;;;;;;;9.43;3.45;;;;;;;20.24;100.00;100798.66;4929694;28;20030;-84
2023/06/24 08:33:29;;;;;;;11.70;3.45;;;;;;;20.26;100.00;100796.56;4939084;28;20481;-80
2023/06/24 08:35:55;;;;;;;8.60;2.80;;;;;;;20.22;100.00;100800.69;4921274;28;20038;-80
2023/06/24 08:38:21;;;;;;;9.55;3.15;;;;;;;20.20;100.00;100789.31;4947351;28;20528;-81
2023/06/24 08:40:49;;;;;;;8.68;3.30;;;;;;;20.30;100.00;100792.47;4937621;28;20026;-80
2023/06/24 08:43:15;;;;;;;12.90;3.38;;;;;;;20.49;100.00;100782.00;4952360;28;20066;-80
2023/06/24 08:45:42;;;;;;;7.38;2.60;;;;;;;20.66;100.00;100781.59;4951862;28;20414;-80
2023/06/24 08:48:08;;;;;;;9.73;3.17;;;;;;;20.78;100.00;100780.00;4930478;28;20047;-80
2023/06/24 08:50:43;;;;;;;8.98;3.50;;;;;;;20.95;100.00;100779.63;4921739;28;20126;-81
2023/06/24 08:53:10;;;;;;;5.28;2.40;;;;;;;21.02;100.00;100779.63;4936704;28;20096;-79
2023/06/24 08:55:42;;;;;;;9.82;3.03;;;;;;;21.12;100.00;100771.97;4965288;28;20513;-81
2023/06/24 08:58:08;;;;;;;16.05;2.95;;;;;;;21.10;100.00;100766.00;4953464;28;20034;-84
2023/06/24 09:00:34;;;;;;;8.95;3.13;;;;;;;21.16;100.00;100767.84;4954928;28;20031;-87
2023/06/24 09:03:00;;;;;;;9.75;3.35;;;;;;;21.17;100.00;100766.81;4955648;28;20489;-81
2023/06/24 09:05:26;;;;;;;8.50;3.05;;;;;;;21.10;100.00;100773.22;4932423;28;20035;-81
2023/06/24 09:07:52;;;;;;;12.40;3.97;;;;;;;21.06;100.00;100778.16;4949193;28;20045;-79
2023/06/24 09:10:31;;;;;;;21.60;4.30;;;;;;;21.06;100.00;100787.06;4957264;28;20122;-79
2023/06/24 09:12:57;;;;;;;13.40;3.70;;;;;;;21.07;100.00;100786.03;4935694;28;20035;-82
2023/06/24 09:15:23;;;;;;;21.45;4.50;;;;;;;21.21;100.00;100785.22;4933322;28;20092;-87
2023/06/24 09:17:49;;;;;;;9.88;3.00;;;;;;;21.40;100.00;100786.22;4951031;28;20046;-80
2023/06/24 09:20:19;;;;;;;11.95;3.80;;;;;;;21.45;100.00;100791.81;4950696;28;20035;-79
2023/06/24 09:22:45;;;;;;;11.65;3.80;;;;;;;21.54;100.00;100787.03;4935069;28;20041;-80
2023/06/24 09:25:18;;;;;;;15.93;3.72;;;;;;;21.66;100.00;100785.34;4950212;28;20116;-78
2023/06/24 09:27:55;;;;;;;18.23;3.63;;;;;;;21.68;100.00;100779.75;4939641;28;20098;-79
2023/06/24 09:30:25;;;;;;;11.38;3.17;;;;;;;21.57;100.00;100781.25;4968679;28;20022;-81
2023/06/24 09:32:52;;;;;;;13.10;4.18;;;;;;;21.49;100.00;100784.97;4946001;28;20043;-80
2023/06/24 09:35:21;;;;;;;12.88;3.67;;;;;;;21.45;100.00;100778.38;4936487;28;20034;-79
2023/06/24 09:37:51;;;;;;;11.70;3.95;;;;;;;21.35;100.00;100781.47;4933261;28;20535;-80
2023/06/24 09:40:18;;;;;;;13.10;3.55;;;;;;;21.25;100.00;100784.59;4940402;28;20048;-79
2023/06/24 09:42:57;;;;;;;9.82;3.35;;;;;;;21.18;100.00;100781.88;4941860;28;20034;-83
2023/06/24 09:45:26;;;;;;;9.93;3.45;;;;;;;21.03;100.00;100779.41;4954862;28;20046;-84
2023/06/24 09:47:58;;;;;;;8.18;3.25;;;;;;;21.01;100.00;100775.28;4953446;28;20496;-78
2023/06/24 09:50:27;;;;;;;11.35;3.33;;;;;;;21.05;100.00;100774.66;4939300;28;20043;-79
2023/06/24 09:52:57;;;;;;;6.45;2.55;;;;;;;21.24;100.00;100779.41;4960576;28;20065;-79
2023/06/24 09:55:23;;;;;;;10.73;3.42;;;;;;;21.28;100.00;100768.03;4944567;28;20125;-79
2023/06/24 09:57:52;;;;;;;10.52;3.50;;;;;;;21.33;100.00;100786.22;4956775;28;20077;-79
2023/06/24 10:00:19;;;;;;;9.13;3.22;;;;;;;21.27;100.00;100781.69;4951023;28;20575;-79
2023/06/24 10:02:47;;;;;;;12.32;3.47;;;;;;;21.30;100.00;100774.03;4959011;28;20054;-77
2023/06/24 10:05:14;;;;;;;11.80;3.20;;;;;;;21.37;100.00;100767.84;4951335;28;20553;-79
2023/06/24 10:07:41;;;;;;;10.30;3.08;;;;;;;21.42;100.00;100771.53;4947707;28;20023;-80
2023/06/24 10:10:08;;;;;;;9.38;3.22;;;;;;;21.48;100.00;100766.38;4938344;28;20039;-79
2023/06/24 10:12:35;;;;;;;12.15;3.50;;;;;;;21.42;100.00;100774.22;4956041;28;20430;-79
2023/06/24 10:15:02;;;;;;;11.75;3.20;;;;;;;21.42;100.00;100768.03;4957792;28;20137;-78
2023/06/24 10:17:27;;;;;;;5.90;2.80;;;;;;;21.44;100.00;100771.31;4966720;28;20104;-81
2023/06/24 10:19:56;;;;;;;8.70;3.15;;;;;;;21.42;100.00;100776.09;4963188;28;20042;-81
2023/06/24 10:22:26;;;;;;;5.88;2.50;;;;;;;21.41;100.00;100761.00;4943181;28;20038;-79
2023/06/24 10:24:53;;;;;;;11.35;3.25;;;;;;;21.35;100.00;100764.50;4939160;28;20795;-79
2023/06/24 10:27:24;;;;;;;11.63;3.10;;;;;;;21.36;100.00;100767.00;4949301;28;20622;-81
2023/06/24 10:29:58;;;;;;;9.50;3.03;;;;;;;21.35;100.00;100776.09;4974880;28;20532;-80
2023/06/24 10:32:24;;;;;;;11.93;3.58;;;;;;;21.45;100.00;100770.31;4949306;28;21287;-88
2023/06/24 10:34:57;;;;;;;8.25;2.88;;;;;;;21.49;100.00;100768.84;4965639;28;20030;-83
2023/06/24 10:37:25;;;;;;;7.05;2.80;;;;;;;21.45;100.00;100770.31;4959568;28;20126;-79
2023/06/24 10:40:01;;;;;;;7.65;2.58;;;;;;;21.51;100.00;100769.47;4961333;28;20114;-78
2023/06/24 10:42:36;;;;;;;5.50;2.08;;;;;;;21.55;100.00;100764.47;4934390;28;20041;-80
2023/06/24 10:45:08;;;;;;;8.02;2.60;;;;;;;21.59;100.00;100768.41;4951994;28;20042;-80
2023/06/24 10:47:36;;;;;;;10.02;2.50;;;;;;;21.74;100.00;100753.91;4947600;28;20071;-80
2023/06/24 10:50:02;;;;;;;6.18;1.90;;;;;;;21.84;100.00;100754.31;4951905;28;20039;-81
2023/06/24 10:52:28;;;;;;;5.50;2.30;;;;;;;21.88;100.00;100752.81;4943692;28;20448;-80
2023/06/24 10:54:57;;;;;;;11.05;2.55;;;;;;;21.87;100.00;100750.34;4956501;28;20038;-77
2023/06/24 10:57:25;;;;;;;8.18;2.47;;;;;;;21.97;100.00;100752.59;4980474;28;20042;-78
2023/06/24 10:59:52;;;;;;;5.00;2.40;;;;;;;22.06;100.00;100738.69;4948668;28;20038;-79
2023/06/24 11:02:26;;;;;;;9.90;3.90;;;;;;;22.13;100.00;100735.97;4959397;28;20737;-79
2023/06/24 11:04:54;;;;;;;8.73;2.40;;;;;;;22.23;100.00;100738.22;4949849;28;20519;-79
2023/06/24 11:07:25;;;;;;;7.63;2.70;;;;;;;22.37;100.00;100738.13;4941725;28;20072;-79
2023/06/24 11:09:55;;;;;;;11.60;2.75;;;;;;;22.42;100.00;100738.31;4959303;28;20053;-79
2023/06/24 11:12:26;;;;;;;10.98;3.22;;;;;;;22.35;100.00;100730.25;4973992;28;20073;-79
2023/06/24 11:14:56;;;;;;;9.55;2.92;;;;;;;22.22;100.00;100733.03;4973509;28;20069;-79
2023/06/24 11:17:22;;;;;;;5.25;2.78;;;;;;;22.09;100.00;100731.25;4968962;28;20100;-80
2023/06/24 11:19:48;;;;;;;8.27;2.67;;;;;;;21.99;100.00;100734.38;4951704;28;20034;-79